メルボルン の空港の天気 - METARとTAF

メルボルン空港 ( YMML / MEL ) - オーストラリア ビクトリア州、Melbourne Airport
飛行場実況気象(Metar)
観測時間01/23 16:30 AEDT (01/23 05:30 UTC)
風向・風速南 8m/s
視程10km以上
天気現象
少しの雲 雲底高度 1070m
気温24℃
湿度47%
気圧1011hPa
METARYMML 230530Z 17016KT 9999 FEW035 24/12 Q1011 NOSIG
過去の天気等 Google飛行場航空写真 Wunderground天気予報

過去48時間のMETAR

飛行場予報(TAF)
発表時間: 1/23 16:25 AEDT (1/23 05:25 UTC)
予報対象時間: 23日17時 AEDT ~ 24日23時 AEDT
風向・風速南 6m/s
視程10km以上
少しの雲 雲底高度 910m
24日1時 AEDT から
風向・風速南西 3m/s
視程10km以上
少しの雲 雲底高度 760m
24日5時 AEDT から
風向・風速西南西 3m/s
視程10km以上
全天の8割程度の雲 雲底高度 460m
24日10時 AEDT から
風向・風速南 5m/s
視程10km以上
全天の4割程度の雲 雲底高度 760m
24日13時 AEDT から
風向・風速南 7m/s
視程10km以上
少しの雲 雲底高度 910m
24日21時 AEDT から
風向・風速南 5m/s
視程10km以上
少しの雲 雲底高度 610m
全天の8割程度の雲 雲底高度 910m
TAF YMML 230525Z 2306/2412 18011KT 9999 FEW030
FM231400 23005KT 9999 FEW025
FM231800 25005KT 9999 BKN015
FM232300 17010KT 9999 SCT025
FM240200 17014KT 9999 FEW030
FM241000 18010KT 9999 FEW020 BKN030